createdAt,value
2023-03-23T15:58:13.964Z,12.30
2023-03-23T16:04:18.835Z,12.30
2023-03-23T16:10:23.758Z,12.30
2023-03-23T16:16:29.909Z,12.10
2023-03-23T16:22:31.910Z,12.00
2023-03-23T16:28:33.830Z,12.10
2023-03-23T16:34:37.096Z,12.00
2023-03-23T16:40:39.018Z,12.00
2023-03-23T16:46:40.951Z,11.90
2023-03-23T16:52:47.570Z,11.90
2023-03-23T16:58:50.024Z,11.80
2023-03-23T17:04:54.947Z,11.70
2023-03-23T17:10:56.800Z,11.70
2023-03-23T17:16:58.892Z,11.80
2023-03-23T17:23:01.088Z,11.70
2023-03-23T17:29:03.965Z,11.60
2023-03-23T17:35:07.204Z,11.40
2023-03-23T17:41:09.307Z,11.40
2023-03-23T17:47:12.662Z,11.30
2023-03-23T17:53:15.129Z,11.30
2023-03-23T17:59:18.167Z,11.30
2023-03-23T18:05:20.090Z,11.40
2023-03-23T18:11:22.250Z,11.40
2023-03-23T18:17:24.659Z,11.50
2023-03-23T18:23:26.991Z,11.50
2023-03-23T18:29:29.035Z,11.40
2023-03-23T18:35:31.026Z,11.40
2023-03-23T18:41:33.105Z,11.30
2023-03-23T18:47:37.599Z,11.30
2023-03-23T18:53:40.785Z,11.20
2023-03-23T18:59:42.568Z,11.20
2023-03-23T19:05:45.436Z,11.10
2023-03-23T19:11:47.691Z,11.00
2023-03-23T19:17:55.670Z,10.90
2023-03-23T19:23:57.861Z,11.00
2023-03-23T19:30:00.062Z,11.10
2023-03-23T19:36:10.009Z,11.10
2023-03-23T19:42:16.951Z,11.10
2023-03-23T19:48:18.918Z,10.90
2023-03-23T19:54:21.465Z,10.90
2023-03-23T20:00:24.596Z,10.90
2023-03-23T20:06:29.337Z,10.90
2023-03-23T20:12:31.803Z,10.90
2023-03-23T20:18:34.352Z,11.00
2023-03-23T20:24:38.050Z,11.10
2023-03-23T20:30:40.444Z,11.10
2023-03-23T20:36:45.239Z,11.20
2023-03-23T20:42:49.125Z,11.20
2023-03-23T20:48:51.832Z,11.10
2023-03-23T20:54:55.292Z,11.10
2023-03-23T21:01:01.506Z,11.00
2023-03-23T21:07:03.323Z,11.10
2023-03-23T21:13:06.511Z,11.10
2023-03-23T21:19:09.073Z,11.00
2023-03-23T21:25:11.335Z,10.90
2023-03-23T21:31:15.106Z,11.00
2023-03-23T21:37:16.950Z,10.90
2023-03-23T21:43:20.704Z,10.90
2023-03-23T21:49:22.833Z,11.00
2023-03-23T21:55:25.594Z,11.00
2023-03-23T22:01:31.033Z,11.10
2023-03-23T22:07:33.221Z,11.10
2023-03-23T22:13:37.179Z,11.10
2023-03-23T22:19:39.644Z,11.10
2023-03-23T22:25:41.921Z,11.10
2023-03-23T22:31:44.909Z,11.10
2023-03-23T22:37:47.172Z,11.30
2023-03-23T22:43:49.377Z,11.40
2023-03-23T22:49:51.183Z,11.40
2023-03-23T22:55:55.604Z,11.40
2023-03-23T23:01:58.698Z,11.50
2023-03-23T23:08:01.518Z,11.40
2023-03-23T23:14:03.667Z,11.40
2023-03-23T23:20:06.237Z,11.50
2023-03-23T23:26:09.458Z,11.60
2023-03-23T23:32:13.145Z,11.80
2023-03-23T23:38:16.170Z,11.60
2023-03-23T23:44:17.949Z,11.40
2023-03-23T23:50:21.702Z,11.20
2023-03-23T23:56:23.741Z,11.10
